Time,TemperatureF,DewpointF,PressureIn,WindDirection,WindDirectionDegrees,WindSpeedMPH,WindSpeedGustMPH,Humidity,HourlyPrecipIn,Conditions,Clouds,dailyrainin,SolarRadiationWatts/m^2,SoftwareType,DateUTC
2013-03-11 00:00:00,58.1,45.6,29.85,SSW,196,3.0,10.0,63,0.00,,---,0.00,0.00,VWS V14.00,2013-03-11 04:00:00,
2013-03-11 00:01:00,58.0,45.5,29.85,SSE,167,2.0,6.0,63,0.00,,---,0.00,0.00,VWS V14.00,2013-03-11 04:01:00,
2013-03-11 00:05:00,57.8,45.3,29.84,SSW,199,3.0,7.0,63,0.00,,---,0.00,0.00,VWS V14.00,2013-03-11 04:05:00,
2013-03-11 00:10:00,57.6,45.1,29.84,SW,214,5.0,8.0,63,0.00,,---,0.00,0.00,VWS V14.00,2013-03-11 04:10:00,
2013-03-11 00:16:00,57.6,45.1,29.84,SSW,199,5.0,6.0,63,0.00,,---,0.00,0.00,VWS V14.00,2013-03-11 04:16:00,
2013-03-11 00:21:00,57.5,45.4,29.84,SW,218,6.0,8.0,64,0.00,,---,0.00,0.00,VWS V14.00,2013-03-11 04:21:00,
2013-03-11 00:30:00,57.3,45.7,29.84,SW,234,7.0,16.0,65,0.00,,---,0.00,0.00,VWS V14.00,2013-03-11 04:30:00,
2013-03-11 00:35:00,57.3,46.0,29.85,SW,226,9.0,18.0,66,0.00,,---,0.00,0.00,VWS V14.00,2013-03-11 04:35:00,
2013-03-11 00:40:00,57.2,46.4,29.83,SW,219,4.0,13.0,67,0.00,,---,0.00,0.00,VWS V14.00,2013-03-11 04:40:00,
2013-03-11 00:45:00,56.8,47.1,29.84,WSW,241,2.0,9.0,70,0.00,,---,0.00,0.00,VWS V14.00,2013-03-11 04:45:00,
2013-03-11 00:50:00,56.2,46.9,29.84,West,276,2.0,4.0,71,0.00,,---,0.00,0.00,VWS V14.00,2013-03-11 04:50:00,
2013-03-11 00:55:00,55.8,47.3,29.84,WSW,250,4.0,5.0,73,0.00,,---,0.00,0.00,VWS V14.00,2013-03-11 04:55:00,
2013-03-11 01:00:00,55.4,47.3,29.85,WSW,252,5.0,7.0,74,0.00,,---,0.00,0.00,VWS V14.00,2013-03-11 05:00:00,
2013-03-11 01:06:00,54.8,47.4,29.86,WSW,252,2.0,7.0,76,0.00,,---,0.00,0.00,VWS V14.00,2013-03-11 05:06:00,
2013-03-11 01:11:00,54.5,47.1,29.85,SSW,198,6.0,7.0,76,0.00,,---,0.00,0.00,VWS V14.00,2013-03-11 05:11:00,
2013-03-11 01:16:00,54.5,47.1,29.85,WSW,248,7.0,8.0,76,0.00,,---,0.00,0.00,VWS V14.00,2013-03-11 05:16:00,
2013-03-11 01:21:00,54.5,47.1,29.84,SSW,213,4.0,8.0,76,0.00,,---,0.00,0.00,VWS V14.00,2013-03-11 05:21:00,
2013-03-11 01:27:00,54.5,47.1,29.84,SW,215,4.0,6.0,76,0.00,,---,0.00,0.00,VWS V14.00,2013-03-11 05:27:00,
2013-03-11 01:32:00,54.5,47.1,29.83,SSW,198,1.0,8.0,76,0.00,,---,0.00,0.00,VWS V14.00,2013-03-11 05:32:00,
2013-03-11 01:37:00,54.4,47.3,29.83,South,186,2.0,6.0,77,0.00,,---,0.00,0.00,VWS V14.00,2013-03-11 05:37:00,
2013-03-11 01:42:00,54.1,47.4,29.83,South,169,4.0,7.0,78,0.00,,---,0.00,0.00,VWS V14.00,2013-03-11 05:42:00,
2013-03-11 01:47:00,53.8,47.5,29.83,SW,219,6.0,6.0,79,0.00,,---,0.00,0.00,VWS V14.00,2013-03-11 05:47:00,
2013-03-11 01:52:00,53.7,47.7,29.83,SSW,213,0.0,6.0,80,0.00,,---,0.00,0.00,VWS V14.00,2013-03-11 05:52:00,
2013-03-11 01:57:00,53.4,47.7,29.81,SSE,157,4.0,5.0,81,0.00,,---,0.00,0.00,VWS V14.00,2013-03-11 05:57:00,
2013-03-11 02:02:00,53.0,48.0,29.82,SSE,155,1.0,5.0,83,0.00,,---,0.00,0.00,VWS V14.00,2013-03-11 06:02:00,
2013-03-11 02:07:00,52.6,47.6,29.80,SE,136,4.0,8.0,83,0.00,,---,0.00,0.00,VWS V14.00,2013-03-11 06:07:00,
2013-03-11 02:12:00,52.4,47.7,29.82,SE,140,1.0,6.0,84,0.00,,---,0.00,0.00,VWS V14.00,2013-03-11 06:12:00,
2013-03-11 02:17:00,52.2,47.8,29.82,SSE,160,4.0,6.0,85,0.00,,---,0.00,0.00,VWS V14.00,2013-03-11 06:17:00,
2013-03-11 02:22:00,52.1,47.7,29.82,SSE,155,3.0,4.0,85,0.00,,---,0.00,0.00,VWS V14.00,2013-03-11 06:22:00,
2013-03-11 02:27:00,52.0,47.6,29.83,SSW,205,0.0,5.0,85,0.00,,---,0.00,0.00,VWS V14.00,2013-03-11 06:27:00,
2013-03-11 02:32:00,52.0,47.6,29.83,SSW,211,5.0,7.0,85,0.00,,---,0.00,0.00,VWS V14.00,2013-03-11 06:32:00,
2013-03-11 02:37:00,52.1,47.7,29.82,SSW,194,2.0,6.0,85,0.00,,---,0.00,0.00,VWS V14.00,2013-03-11 06:37:00,
2013-03-11 02:42:00,52.1,47.7,29.82,SW,221,1.0,6.0,85,0.00,,---,0.00,0.00,VWS V14.00,2013-03-11 06:42:00,
2013-03-11 02:47:00,51.9,47.8,29.82,SW,215,1.0,2.0,86,0.00,,---,0.00,0.00,VWS V14.00,2013-03-11 06:47:00,
2013-03-11 02:52:00,51.7,47.7,29.81,SW,216,0.0,6.0,86,0.00,,---,0.00,0.00,VWS V14.00,2013-03-11 06:52:00,
2013-03-11 02:57:00,51.5,47.5,29.82,SSW,199,4.0,6.0,86,0.00,,---,0.00,0.00,VWS V14.00,2013-03-11 06:57:00,
2013-03-11 03:02:00,51.5,47.5,29.82,South,187,0.0,7.0,86,0.00,,---,0.00,0.00,VWS V14.00,2013-03-11 07:02:00,
2013-03-11 03:07:00,51.5,47.5,29.82,South,190,5.0,8.0,86,0.00,,---,0.00,0.00,VWS V14.00,2013-03-11 07:07:00,
2013-03-11 03:12:00,51.5,47.5,29.81,SW,218,0.0,5.0,86,0.00,,---,0.00,0.00,VWS V14.00,2013-03-11 07:12:00,
2013-03-11 03:17:00,51.4,47.4,29.81,SW,215,3.0,5.0,86,0.00,,---,0.00,0.00,VWS V14.00,2013-03-11 07:17:00,
2013-03-11 03:22:00,51.3,47.6,29.81,South,182,2.0,4.0,87,0.00,,---,0.00,0.00,VWS V14.00,2013-03-11 07:22:00,
2013-03-11 03:27:00,51.1,47.4,29.81,SSE,157,3.0,6.0,87,0.00,,---,0.00,0.00,VWS V14.00,2013-03-11 07:27:00,
2013-03-11 03:32:00,50.9,47.2,29.81,SSE,157,0.0,1.0,87,0.00,,---,0.00,0.00,VWS V14.00,2013-03-11 07:32:00,
2013-03-11 03:37:00,50.8,47.1,29.81,SSW,205,11.0,12.0,87,0.00,,---,0.00,0.00,VWS V14.00,2013-03-11 07:37:00,
2013-03-11 03:42:00,50.8,47.1,29.80,South,183,1.0,4.0,87,0.00,,---,0.00,0.00,VWS V14.00,2013-03-11 07:42:00,
2013-03-11 03:47:00,50.8,47.1,29.80,South,169,1.0,4.0,87,0.00,,---,0.00,0.00,VWS V14.00,2013-03-11 07:47:00,
2013-03-11 03:52:00,50.8,47.1,29.79,SSE,155,2.0,5.0,87,0.00,,---,0.00,0.00,VWS V14.00,2013-03-11 07:52:00,
2013-03-11 03:57:00,50.8,47.1,29.78,SE,140,7.0,7.0,87,0.00,,---,0.00,0.00,VWS V14.00,2013-03-11 07:57:00,
2013-03-11 04:02:00,50.8,47.1,29.78,SE,144,4.0,5.0,87,0.00,,---,0.00,0.00,VWS V14.00,2013-03-11 08:02:00,
2013-03-11 04:07:00,50.9,47.2,29.77,SE,140,3.0,5.0,87,0.00,,---,0.00,0.00,VWS V14.00,2013-03-11 08:07:00,
2013-03-11 04:12:00,51.1,47.4,29.77,SSE,157,0.0,7.0,87,0.00,,---,0.00,0.00,VWS V14.00,2013-03-11 08:12:00,
2013-03-11 04:17:00,51.3,47.3,29.77,SSE,154,1.0,5.0,86,0.00,,---,0.00,0.00,VWS V14.00,2013-03-11 08:17:00,
2013-03-11 04:22:00,51.3,47.3,29.77,SSE,154,3.0,4.0,86,0.00,,---,0.00,0.00,VWS V14.00,2013-03-11 08:22:00,
2013-03-11 04:27:00,51.3,47.3,29.77,SE,142,5.0,6.0,86,0.00,,---,0.00,0.00,VWS V14.00,2013-03-11 08:27:00,
2013-03-11 04:32:00,51.3,47.3,29.77,SE,136,5.0,7.0,86,0.00,,---,0.00,0.00,VWS V14.00,2013-03-11 08:32:00,
2013-03-11 04:37:00,51.3,47.3,29.78,SE,144,3.0,7.0,86,0.00,,---,0.00,0.00,VWS V14.00,2013-03-11 08:37:00,
2013-03-11 04:42:00,51.3,47.3,29.78,SE,144,4.0,5.0,86,0.00,,---,0.00,0.00,VWS V14.00,2013-03-11 08:42:00,
2013-03-11 04:47:00,51.1,47.4,29.78,SE,141,3.0,5.0,87,0.00,,---,0.00,0.00,VWS V14.00,2013-03-11 08:47:00,
2013-03-11 04:52:00,50.8,47.1,29.78,SE,138,5.0,6.0,87,0.00,,---,0.00,0.00,VWS V14.00,2013-03-11 08:52:00,
2013-03-11 04:57:00,50.6,46.9,29.79,SE,136,5.0,7.0,87,0.00,,---,0.00,0.00,VWS V14.00,2013-03-11 08:57:00,
2013-03-11 05:02:00,50.5,46.8,29.79,SE,139,5.0,8.0,87,0.00,,---,0.00,0.00,VWS V14.00,2013-03-11 09:02:00,
2013-03-11 05:08:00,50.3,46.6,29.78,SE,138,2.0,6.0,87,0.00,,---,0.00,0.00,VWS V14.00,2013-03-11 09:08:00,
2013-03-11 05:13:00,50.2,46.5,29.78,SE,130,4.0,5.0,87,0.00,,---,0.00,0.00,VWS V14.00,2013-03-11 09:13:00,
2013-03-11 05:20:00,50.0,46.3,29.79,SE,145,1.0,6.0,87,0.00,,---,0.00,0.00,VWS V14.00,2013-03-11 09:20:00,
2013-03-11 05:28:00,49.9,46.2,29.79,SE,146,4.0,6.0,87,0.00,,---,0.00,0.00,VWS V14.00,2013-03-11 09:28:00,
2013-03-11 05:33:00,49.8,46.1,29.78,SE,138,3.0,5.0,87,0.00,,---,0.00,0.00,VWS V14.00,2013-03-11 09:33:00,
2013-03-11 05:38:00,49.8,46.1,29.78,SE,138,5.0,6.0,87,0.00,,---,0.00,0.00,VWS V14.00,2013-03-11 09:38:00,
2013-03-11 05:43:00,49.7,46.0,29.80,SSE,147,4.0,5.0,87,0.00,,---,0.00,0.00,VWS V14.00,2013-03-11 09:43:00,
2013-03-11 05:48:00,49.7,46.0,29.79,SE,144,4.0,6.0,87,0.00,,---,0.00,0.00,VWS V14.00,2013-03-11 09:48:00,
2013-03-11 05:53:00,49.7,46.0,29.79,SE,143,4.0,6.0,87,0.00,,---,0.00,0.00,VWS V14.00,2013-03-11 09:53:00,
2013-03-11 05:58:00,49.7,46.0,29.79,SSE,149,2.0,5.0,87,0.00,,---,0.00,0.00,VWS V14.00,2013-03-11 09:58:00,
2013-03-11 06:03:00,49.7,46.0,29.79,SE,143,2.0,4.0,87,0.00,,---,0.00,0.00,VWS V14.00,2013-03-11 10:03:00,
2013-03-11 06:08:00,49.7,46.0,29.79,SSE,147,2.0,3.0,87,0.00,,---,0.00,0.00,VWS V14.00,2013-03-11 10:08:00,
2013-03-11 06:13:00,49.7,46.0,29.80,SSE,149,2.0,5.0,87,0.00,,---,0.00,0.00,VWS V14.00,2013-03-11 10:13:00,
2013-03-11 06:18:00,49.6,45.9,29.79,SE,144,2.0,5.0,87,0.00,,---,0.00,0.00,VWS V14.00,2013-03-11 10:18:00,
2013-03-11 06:23:00,49.5,45.8,29.79,SE,140,5.0,8.0,87,0.00,,---,0.00,0.00,VWS V14.00,2013-03-11 10:23:00,
2013-03-11 06:28:00,49.5,45.8,29.79,SE,137,3.0,7.0,87,0.00,,---,0.00,0.00,VWS V14.00,2013-03-11 10:28:00,
2013-03-11 06:33:00,49.4,45.7,29.79,SE,146,2.0,3.0,87,0.00,,---,0.00,0.00,VWS V14.00,2013-03-11 10:33:00,
2013-03-11 06:38:00,49.4,45.7,29.79,SE,144,2.0,5.0,87,0.00,,---,0.00,0.00,VWS V14.00,2013-03-11 10:38:00,
2013-03-11 06:43:00,49.4,45.7,29.78,SE,145,4.0,6.0,87,0.00,,---,0.00,0.00,VWS V14.00,2013-03-11 10:43:00,
2013-03-11 06:48:00,49.4,45.7,29.78,ESE,118,4.0,7.0,87,0.00,,---,0.00,0.00,VWS V14.00,2013-03-11 10:48:00,
2013-03-11 06:53:00,49.4,45.7,29.78,SE,142,5.0,9.0,87,0.00,,---,0.00,0.00,VWS V14.00,2013-03-11 10:53:00,
2013-03-11 06:58:00,49.4,45.7,29.78,SE,142,3.0,5.0,87,0.00,,---,0.00,0.00,VWS V14.00,2013-03-11 10:58:00,
2013-03-11 07:03:00,49.4,45.7,29.78,SSE,159,3.0,5.0,87,0.00,,---,0.00,0.00,VWS V14.00,2013-03-11 11:03:00,
2013-03-11 07:08:00,49.4,45.7,29.78,SE,142,2.0,6.0,87,0.00,,---,0.00,0.00,VWS V14.00,2013-03-11 11:08:00,
2013-03-11 07:13:00,49.5,45.8,29.78,SE,146,0.0,5.0,87,0.00,,---,0.00,0.00,VWS V14.00,2013-03-11 11:13:00,
2013-03-11 07:18:00,49.6,45.9,29.78,SSE,161,2.0,6.0,87,0.00,,---,0.00,0.00,VWS V14.00,2013-03-11 11:18:00,
2013-03-11 07:23:00,49.6,45.9,29.78,SSE,160,0.0,4.0,87,0.00,,---,0.00,0.00,VWS V14.00,2013-03-11 11:23:00,
2013-03-11 07:28:00,49.7,46.0,29.78,SSE,166,2.0,4.0,87,0.00,,---,0.00,0.00,VWS V14.00,2013-03-11 11:28:00,
2013-03-11 07:33:00,49.7,46.0,29.78,SSE,166,0.0,2.0,87,0.00,,---,0.00,0.00,VWS V14.00,2013-03-11 11:33:00,
2013-03-11 07:38:00,49.8,46.1,29.78,South,170,2.0,4.0,87,0.00,,---,0.00,0.00,VWS V14.00,2013-03-11 11:38:00,
2013-03-11 07:43:00,49.9,46.2,29.78,SSW,200,0.0,2.0,87,0.00,,---,0.00,0.00,VWS V14.00,2013-03-11 11:43:00,
2013-03-11 07:48:00,49.9,46.2,29.78,SSW,200,0.0,4.0,87,0.00,,---,0.00,0.00,VWS V14.00,2013-03-11 11:48:00,
2013-03-11 07:53:00,50.0,46.0,29.78,SE,134,4.0,6.0,86,0.00,,---,0.00,0.00,VWS V14.00,2013-03-11 11:53:00,
2013-03-11 07:58:00,50.1,46.1,29.79,SSE,158,2.0,5.0,86,0.00,,---,0.00,0.00,VWS V14.00,2013-03-11 11:58:00,
2013-03-11 08:03:00,50.1,46.1,29.78,SE,144,5.0,6.0,86,0.00,,---,0.00,0.00,VWS V14.00,2013-03-11 12:03:00,
2013-03-11 08:08:00,50.2,46.2,29.79,SE,141,1.0,8.0,86,0.00,,---,0.00,0.00,VWS V14.00,2013-03-11 12:08:00,
2013-03-11 08:13:00,50.1,46.1,29.79,SSE,148,4.0,6.0,86,0.00,,---,0.00,0.00,VWS V14.00,2013-03-11 12:13:00,
2013-03-11 08:18:00,50.0,46.0,29.79,SSE,150,3.0,6.0,86,0.00,,---,0.00,0.00,VWS V14.00,2013-03-11 12:18:00,
2013-03-11 08:23:00,50.0,46.0,29.79,SSE,155,4.0,7.0,86,0.00,,---,0.00,0.00,VWS V14.00,2013-03-11 12:23:00,
2013-03-11 08:28:00,49.9,45.9,29.79,SSE,152,0.0,5.0,86,0.00,,---,0.00,0.00,VWS V14.00,2013-03-11 12:28:00,
2013-03-11 08:33:00,49.9,45.9,29.79,SSE,149,5.0,5.0,86,0.00,,---,0.00,0.00,VWS V14.00,2013-03-11 12:33:00,
2013-03-11 08:38:00,50.0,46.0,29.78,SE,142,4.0,8.0,86,0.00,,---,0.00,0.00,VWS V14.00,2013-03-11 12:38:00,
2013-03-11 08:43:00,50.1,46.1,29.79,ESE,119,5.0,9.0,86,0.00,,---,0.00,0.00,VWS V14.00,2013-03-11 12:43:00,
2013-03-11 08:48:00,50.2,46.2,29.79,SE,142,4.0,9.0,86,0.00,,---,0.00,5.00,VWS V14.00,2013-03-11 12:48:00,
2013-03-11 08:53:00,50.2,46.2,29.79,SE,144,5.0,8.0,86,0.00,,---,0.00,9.00,VWS V14.00,2013-03-11 12:53:00,
2013-03-11 08:58:00,50.2,46.2,29.78,South,174,0.0,6.0,86,0.00,,---,0.00,12.00,VWS V14.00,2013-03-11 12:58:00,
2013-03-11 09:04:00,50.3,46.3,29.78,SW,220,8.0,8.0,86,0.00,,---,0.00,11.00,VWS V14.00,2013-03-11 13:04:00,
2013-03-11 09:09:00,50.4,46.4,29.78,SSE,155,2.0,5.0,86,0.00,,---,0.00,9.00,VWS V14.00,2013-03-11 13:09:00,
2013-03-11 09:14:00,50.5,46.5,29.77,SE,130,4.0,6.0,86,0.00,,---,0.00,9.00,VWS V14.00,2013-03-11 13:14:00,
2013-03-11 09:19:00,50.5,46.5,29.77,SSE,149,4.0,8.0,86,0.00,,---,0.00,19.00,VWS V14.00,2013-03-11 13:19:00,
2013-03-11 09:24:00,50.5,46.5,29.77,SE,138,5.0,6.0,86,0.00,,---,0.00,19.00,VWS V14.00,2013-03-11 13:24:00,
2013-03-11 09:29:00,50.6,46.6,29.76,SE,145,6.0,9.0,86,0.00,,---,0.00,21.00,VWS V14.00,2013-03-11 13:29:00,
2013-03-11 09:34:00,50.6,46.6,29.76,SE,134,7.0,8.0,86,0.00,,---,0.00,32.00,VWS V14.00,2013-03-11 13:34:00,
2013-03-11 09:39:00,50.6,46.6,29.75,SE,125,8.0,10.0,86,0.00,,---,0.00,30.00,VWS V14.00,2013-03-11 13:39:00,
2013-03-11 09:44:00,50.6,46.6,29.73,SE,129,6.0,9.0,86,0.00,,---,0.00,23.00,VWS V14.00,2013-03-11 13:44:00,
2013-03-11 09:49:00,50.5,46.5,29.72,SE,126,7.0,11.0,86,0.00,,---,0.00,14.00,VWS V14.00,2013-03-11 13:49:00,
2013-03-11 09:54:00,50.6,46.6,29.71,SSE,157,11.0,16.0,86,0.00,,---,0.00,23.00,VWS V14.00,2013-03-11 13:54:00,
2013-03-11 09:59:00,50.8,46.8,29.70,SE,138,12.0,16.0,86,0.00,,---,0.00,49.00,VWS V14.00,2013-03-11 13:59:00,
2013-03-11 10:04:00,51.1,46.8,29.69,ESE,103,14.0,15.0,85,0.00,,---,0.00,60.00,VWS V14.00,2013-03-11 14:04:00,
2013-03-11 10:09:00,51.2,46.8,29.68,SE,130,14.0,15.0,85,0.00,,---,0.00,102.00,VWS V14.00,2013-03-11 14:09:00,
2013-03-11 10:14:00,51.2,46.8,29.69,SE,128,10.0,15.0,85,0.00,,---,0.00,102.00,VWS V14.00,2013-03-11 14:14:00,
2013-03-11 10:19:00,51.4,47.0,29.69,SE,131,7.0,16.0,85,0.00,,---,0.00,54.00,VWS V14.00,2013-03-11 14:19:00,
2013-03-11 10:24:00,51.4,47.0,29.70,SE,126,6.0,13.0,85,0.00,,---,0.00,54.00,VWS V14.00,2013-03-11 14:24:00,
2013-03-11 10:29:00,51.5,47.2,29.70,SSE,162,6.0,9.0,85,0.00,,---,0.00,40.00,VWS V14.00,2013-03-11 14:29:00,
2013-03-11 10:34:00,51.4,47.0,29.71,SE,144,5.0,10.0,85,0.00,,---,0.00,26.00,VWS V14.00,2013-03-11 14:34:00,
2013-03-11 10:39:00,51.4,47.0,29.70,SSW,195,11.0,11.0,85,0.00,,---,0.00,40.00,VWS V14.00,2013-03-11 14:39:00,
2013-03-11 10:44:00,51.4,47.0,29.70,SE,135,8.0,10.0,85,0.00,,---,0.00,35.00,VWS V14.00,2013-03-11 14:44:00,
2013-03-11 10:49:00,51.4,47.0,29.69,SE,138,8.0,10.0,85,0.00,,---,0.00,35.00,VWS V14.00,2013-03-11 14:49:00,
2013-03-11 10:54:00,51.4,47.4,29.69,SE,138,6.0,11.0,86,0.00,,---,0.00,54.00,VWS V14.00,2013-03-11 14:54:00,
2013-03-11 10:59:00,51.4,47.4,29.69,SSE,157,6.0,12.0,86,0.00,,---,0.00,33.00,VWS V14.00,2013-03-11 14:59:00,
2013-03-11 11:04:00,51.4,47.4,29.68,SSE,156,4.0,10.0,86,0.00,,---,0.00,53.00,VWS V14.00,2013-03-11 15:04:00,
2013-03-11 11:09:00,51.3,47.0,29.69,SE,146,4.0,9.0,85,0.00,,---,0.00,56.00,VWS V14.00,2013-03-11 15:09:00,
2013-03-11 11:14:00,51.3,47.0,29.70,SE,125,8.0,13.0,85,0.00,,---,0.00,25.00,VWS V14.00,2013-03-11 15:14:00,
2013-03-11 11:19:00,51.3,47.0,29.69,SSE,150,14.0,15.0,85,0.00,,---,0.00,58.00,VWS V14.00,2013-03-11 15:19:00,
2013-03-11 11:24:00,51.3,47.0,29.70,SSE,147,10.0,12.0,85,0.00,,---,0.00,32.00,VWS V14.00,2013-03-11 15:24:00,
2013-03-11 11:29:00,51.3,47.0,29.70,SE,136,6.0,14.0,85,0.00,,---,0.00,30.00,VWS V14.00,2013-03-11 15:29:00,
2013-03-11 11:34:00,51.3,47.0,29.69,South,175,6.0,15.0,85,0.00,,---,0.00,30.00,VWS V14.00,2013-03-11 15:34:00,
2013-03-11 11:39:00,51.3,47.0,29.69,SE,136,5.0,15.0,85,0.00,,---,0.00,39.00,VWS V14.00,2013-03-11 15:39:00,
2013-03-11 11:44:00,51.3,47.0,29.69,SE,127,7.0,12.0,85,0.00,,---,0.00,42.00,VWS V14.00,2013-03-11 15:44:00,
2013-03-11 11:49:00,51.2,46.8,29.68,SE,146,6.0,13.0,85,0.00,,---,0.00,30.00,VWS V14.00,2013-03-11 15:49:00,
2013-03-11 11:54:00,51.3,47.0,29.67,SSE,148,9.0,14.0,85,0.00,,---,0.00,51.00,VWS V14.00,2013-03-11 15:54:00,
2013-03-11 11:59:00,51.3,47.3,29.66,SE,142,12.0,13.0,86,0.00,,---,0.00,60.00,VWS V14.00,2013-03-11 15:59:00,
2013-03-11 12:04:00,51.5,47.5,29.67,SE,137,7.0,19.0,86,0.00,,---,0.00,42.00,VWS V14.00,2013-03-11 16:04:00,
2013-03-11 12:09:00,51.6,47.6,29.66,SSE,165,6.0,20.0,86,0.00,,---,0.00,40.00,VWS V14.00,2013-03-11 16:09:00,
2013-03-11 12:14:00,51.8,47.8,29.66,SE,140,8.0,13.0,86,0.00,,---,0.00,46.00,VWS V14.00,2013-03-11 16:14:00,
2013-03-11 12:19:00,51.9,47.5,29.66,SSE,150,7.0,16.0,85,0.00,,---,0.00,44.00,VWS V14.00,2013-03-11 16:19:00,
2013-03-11 12:24:00,52.0,47.6,29.65,SSE,152,9.0,14.0,85,0.00,,---,0.00,30.00,VWS V14.00,2013-03-11 16:24:00,
2013-03-11 12:29:00,52.1,47.7,29.65,SSE,149,9.0,12.0,85,0.00,,---,0.00,37.00,VWS V14.00,2013-03-11 16:29:00,
2013-03-11 12:34:00,52.3,47.9,29.65,SE,146,9.0,15.0,85,0.00,,---,0.00,47.00,VWS V14.00,2013-03-11 16:34:00,
2013-03-11 12:39:00,52.4,48.0,29.65,SSE,163,8.0,11.0,85,0.00,,---,0.00,46.00,VWS V14.00,2013-03-11 16:39:00,
2013-03-11 12:44:00,52.5,48.4,29.65,SE,128,7.0,14.0,86,0.00,,---,0.00,40.00,VWS V14.00,2013-03-11 16:44:00,
2013-03-11 12:49:00,52.6,48.2,29.65,SE,143,9.0,16.0,85,0.00,,---,0.00,39.00,VWS V14.00,2013-03-11 16:49:00,
2013-03-11 12:54:00,52.6,48.2,29.65,SE,136,7.0,15.0,85,0.00,,---,0.00,58.00,VWS V14.00,2013-03-11 16:54:00,
2013-03-11 12:59:00,52.7,48.3,29.65,SSE,161,5.0,12.0,85,0.00,,---,0.00,62.00,VWS V14.00,2013-03-11 16:59:00,
2013-03-11 13:04:00,52.8,48.4,29.65,SE,138,4.0,14.0,85,0.00,,---,0.00,49.00,VWS V14.00,2013-03-11 17:04:00,
2013-03-11 13:09:00,53.0,48.9,29.64,SE,137,7.0,11.0,86,0.00,,---,0.00,67.00,VWS V14.00,2013-03-11 17:09:00,
2013-03-11 13:14:00,53.1,49.0,29.63,SW,227,6.0,16.0,86,0.00,,---,0.00,69.00,VWS V14.00,2013-03-11 17:14:00,
2013-03-11 13:19:00,53.2,49.1,29.63,SE,139,6.0,18.0,86,0.00,,---,0.00,63.00,VWS V14.00,2013-03-11 17:19:00,
2013-03-11 13:24:00,53.4,49.3,29.62,SE,140,13.0,15.0,86,0.00,,---,0.00,69.00,VWS V14.00,2013-03-11 17:24:00,
2013-03-11 13:29:00,53.5,49.4,29.62,SSE,167,9.0,18.0,86,0.00,,---,0.00,40.00,VWS V14.00,2013-03-11 17:29:00,
2013-03-11 13:34:00,53.7,49.6,29.62,SSE,162,9.0,16.0,86,0.00,,---,0.00,44.00,VWS V14.00,2013-03-11 17:34:00,
2013-03-11 13:39:00,53.8,49.7,29.62,South,182,9.0,15.0,86,0.00,,---,0.00,19.00,VWS V14.00,2013-03-11 17:39:00,
2013-03-11 13:45:00,53.9,49.8,29.62,West,261,5.0,21.0,86,0.00,,---,0.00,9.00,VWS V14.00,2013-03-11 17:45:00,
2013-03-11 13:50:00,54.0,49.9,29.63,WSW,238,7.0,16.0,86,0.00,,---,0.00,25.00,VWS V14.00,2013-03-11 17:50:00,
2013-03-11 13:55:00,54.1,50.0,29.62,SSW,198,8.0,16.0,86,0.00,,---,0.00,30.00,VWS V14.00,2013-03-11 17:55:00,
2013-03-11 14:00:00,54.1,50.0,29.62,WSW,244,6.0,14.0,86,0.00,,---,0.00,30.00,VWS V14.00,2013-03-11 18:00:00,
2013-03-11 14:05:00,54.2,50.1,29.62,WSW,241,9.0,13.0,86,0.00,,---,0.00,21.00,VWS V14.00,2013-03-11 18:05:00,
2013-03-11 14:10:00,53.9,49.8,29.63,West,267,15.0,24.0,86,0.00,,---,0.00,19.00,VWS V14.00,2013-03-11 18:10:00,
2013-03-11 14:15:00,52.7,49.0,29.64,WSW,249,16.0,26.0,87,0.01,,---,0.01,69.00,VWS V14.00,2013-03-11 18:15:00,
2013-03-11 14:20:00,51.8,48.1,29.64,NW,320,11.0,31.0,87,0.01,,---,0.01,74.00,VWS V14.00,2013-03-11 18:20:00,
2013-03-11 14:25:00,50.6,47.2,29.64,NW,320,12.0,27.0,88,0.01,,---,0.01,67.00,VWS V14.00,2013-03-11 18:25:00,
2013-03-11 14:30:00,50.0,46.6,29.64,WNW,302,14.0,24.0,88,0.01,,---,0.01,91.00,VWS V14.00,2013-03-11 18:30:00,
2013-03-11 14:35:00,49.5,46.1,29.63,NW,315,10.0,19.0,88,0.01,,---,0.01,171.00,VWS V14.00,2013-03-11 18:35:00,
2013-03-11 14:40:00,49.3,46.2,29.62,WNW,292,8.0,21.0,89,0.01,,---,0.01,109.00,VWS V14.00,2013-03-11 18:40:00,
2013-03-11 14:45:00,49.1,45.7,29.63,NW,305,11.0,18.0,88,0.01,,---,0.01,139.00,VWS V14.00,2013-03-11 18:45:00,
2013-03-11 14:50:00,48.8,45.4,29.64,WNW,296,10.0,19.0,88,0.01,,---,0.01,130.00,VWS V14.00,2013-03-11 18:50:00,
2013-03-11 14:55:00,48.6,45.2,29.65,West,261,11.0,20.0,88,0.01,,---,0.01,62.00,VWS V14.00,2013-03-11 18:55:00,
2013-03-11 15:00:00,48.4,45.3,29.65,NW,326,8.0,20.0,89,0.01,,---,0.01,135.00,VWS V14.00,2013-03-11 19:00:00,
2013-03-11 15:05:00,48.2,44.8,29.65,West,271,10.0,21.0,88,0.01,,---,0.01,118.00,VWS V14.00,2013-03-11 19:05:00,
2013-03-11 15:10:00,48.1,44.7,29.65,WNW,298,18.0,20.0,88,0.01,,---,0.01,53.00,VWS V14.00,2013-03-11 19:10:00,
2013-03-11 15:15:00,48.0,44.9,29.65,West,281,12.0,23.0,89,0.01,,---,0.01,113.00,VWS V14.00,2013-03-11 19:15:00,
2013-03-11 15:20:00,48.0,44.6,29.65,NW,308,10.0,13.0,88,0.00,,---,0.01,109.00,VWS V14.00,2013-03-11 19:20:00,
2013-03-11 15:25:00,47.9,44.5,29.65,West,272,11.0,16.0,88,0.00,,---,0.01,120.00,VWS V14.00,2013-03-11 19:25:00,
2013-03-11 15:30:00,47.8,44.4,29.65,WSW,247,6.0,22.0,88,0.00,,---,0.01,95.00,VWS V14.00,2013-03-11 19:30:00,
2013-03-11 15:35:00,47.8,44.4,29.65,WNW,282,7.0,13.0,88,0.00,,---,0.01,63.00,VWS V14.00,2013-03-11 19:35:00,
2013-03-11 15:40:00,47.6,44.2,29.65,SSW,205,12.0,13.0,88,0.00,,---,0.01,79.00,VWS V14.00,2013-03-11 19:40:00,
2013-03-11 15:45:00,47.5,44.1,29.65,WNW,290,7.0,16.0,88,0.00,,---,0.01,53.00,VWS V14.00,2013-03-11 19:45:00,
2013-03-11 15:50:00,47.5,44.1,29.65,WNW,296,7.0,13.0,88,0.00,,---,0.01,46.00,VWS V14.00,2013-03-11 19:50:00,
2013-03-11 15:55:00,47.3,43.9,29.66,WNW,282,10.0,18.0,88,0.00,,---,0.01,39.00,VWS V14.00,2013-03-11 19:55:00,
2013-03-11 16:00:00,46.9,43.8,29.65,West,278,9.0,18.0,89,0.00,,---,0.01,30.00,VWS V14.00,2013-03-11 20:00:00,
2013-03-11 16:05:00,46.8,43.7,29.66,WNW,286,10.0,14.0,89,0.00,,---,0.01,54.00,VWS V14.00,2013-03-11 20:05:00,
2013-03-11 16:10:00,46.5,43.4,29.66,WNW,292,16.0,16.0,89,0.00,,---,0.01,49.00,VWS V14.00,2013-03-11 20:10:00,
2013-03-11 16:15:00,46.3,43.2,29.66,WNW,289,10.0,28.0,89,0.00,,---,0.01,44.00,VWS V14.00,2013-03-11 20:15:00,
2013-03-11 16:20:00,46.2,42.8,29.66,West,275,13.0,21.0,88,0.00,,---,0.01,62.00,VWS V14.00,2013-03-11 20:20:00,
2013-03-11 16:25:00,46.1,42.8,29.66,NW,306,8.0,20.0,88,0.00,,---,0.01,76.00,VWS V14.00,2013-03-11 20:25:00,
2013-03-11 16:30:00,46.2,42.8,29.66,West,268,5.0,6.0,88,0.00,,---,0.01,77.00,VWS V14.00,2013-03-11 20:30:00,
2013-03-11 16:35:00,46.2,42.8,29.66,WSW,250,13.0,15.0,88,0.00,,---,0.01,74.00,VWS V14.00,2013-03-11 20:35:00,
2013-03-11 16:40:00,46.2,42.8,29.66,West,259,5.0,9.0,88,0.00,,---,0.01,128.00,VWS V14.00,2013-03-11 20:40:00,
2013-03-11 16:45:00,46.3,42.7,29.66,West,259,10.0,10.0,87,0.00,,---,0.01,156.00,VWS V14.00,2013-03-11 20:45:00,
2013-03-11 16:50:00,46.4,42.8,29.66,West,270,7.0,10.0,87,0.00,,---,0.01,169.00,VWS V14.00,2013-03-11 20:50:00,
2013-03-11 16:55:00,46.5,42.8,29.66,SW,225,7.0,8.0,87,0.00,,---,0.01,148.00,VWS V14.00,2013-03-11 20:55:00,
2013-03-11 17:00:00,46.6,42.6,29.66,West,263,8.0,11.0,86,0.00,,---,0.01,141.00,VWS V14.00,2013-03-11 21:00:00,
2013-03-11 17:05:00,46.7,42.7,29.66,SW,232,11.0,11.0,86,0.00,,---,0.01,141.00,VWS V14.00,2013-03-11 21:05:00,
2013-03-11 17:10:00,46.7,42.7,29.67,WNW,290,6.0,8.0,86,0.00,,---,0.01,128.00,VWS V14.00,2013-03-11 21:10:00,
2013-03-11 17:15:00,46.7,42.4,29.67,West,281,8.0,12.0,85,0.00,,---,0.01,128.00,VWS V14.00,2013-03-11 21:15:00,
2013-03-11 17:20:00,46.8,42.5,29.67,SW,224,15.0,16.0,85,0.00,,---,0.01,135.00,VWS V14.00,2013-03-11 21:20:00,
2013-03-11 17:25:00,46.9,42.6,29.68,WNW,300,6.0,8.0,85,0.00,,---,0.01,125.00,VWS V14.00,2013-03-11 21:25:00,
2013-03-11 17:30:00,46.9,42.6,29.68,SW,219,10.0,11.0,85,0.00,,---,0.01,178.00,VWS V14.00,2013-03-11 21:30:00,
2013-03-11 17:35:00,47.0,42.7,29.68,WSW,240,5.0,7.0,85,0.00,,---,0.01,151.00,VWS V14.00,2013-03-11 21:35:00,
2013-03-11 17:40:00,47.2,42.9,29.68,WNW,288,9.0,10.0,85,0.00,,---,0.01,311.00,VWS V14.00,2013-03-11 21:40:00,
2013-03-11 17:45:00,47.4,42.8,29.68,West,267,12.0,15.0,84,0.00,,---,0.01,612.00,VWS V14.00,2013-03-11 21:45:00,
2013-03-11 17:50:00,48.0,43.4,29.68,West,265,3.0,7.0,84,0.00,,---,0.01,461.00,VWS V14.00,2013-03-11 21:50:00,
2013-03-11 17:55:00,48.5,43.6,29.69,West,281,9.0,11.0,83,0.00,,---,0.01,404.00,VWS V14.00,2013-03-11 21:55:00,
2013-03-11 18:00:00,48.9,43.3,29.70,WNW,298,13.0,14.0,81,0.00,,---,0.01,411.00,VWS V14.00,2013-03-11 22:00:00,
2013-03-11 18:05:00,49.0,43.1,29.70,WNW,283,9.0,11.0,80,0.00,,---,0.01,381.00,VWS V14.00,2013-03-11 22:05:00,
2013-03-11 18:10:00,48.8,42.9,29.70,West,260,4.0,11.0,80,0.00,,---,0.01,86.00,VWS V14.00,2013-03-11 22:10:00,
2013-03-11 18:15:00,48.4,42.5,29.70,WNW,299,10.0,14.0,80,0.00,,---,0.01,69.00,VWS V14.00,2013-03-11 22:15:00,
2013-03-11 18:20:00,48.1,42.2,29.70,WSW,253,12.0,16.0,80,0.00,,---,0.01,54.00,VWS V14.00,2013-03-11 22:20:00,
2013-03-11 18:25:00,47.9,42.0,29.71,WNW,292,12.0,13.0,80,0.00,,---,0.01,44.00,VWS V14.00,2013-03-11 22:25:00,
2013-03-11 18:30:00,47.8,41.0,29.71,WSW,250,12.0,19.0,77,0.00,,---,0.01,33.00,VWS V14.00,2013-03-11 22:30:00,
2013-03-11 18:35:00,47.7,40.5,29.71,West,279,10.0,18.0,76,0.00,,---,0.01,33.00,VWS V14.00,2013-03-11 22:35:00,
2013-03-11 18:40:00,47.6,40.8,29.72,WNW,291,13.0,13.0,77,0.00,,---,0.01,30.00,VWS V14.00,2013-03-11 22:40:00,
2013-03-11 18:45:00,47.5,40.7,29.72,WNW,294,8.0,12.0,77,0.00,,---,0.01,23.00,VWS V14.00,2013-03-11 22:45:00,
2013-03-11 18:50:00,47.3,40.5,29.72,WNW,291,12.0,23.0,77,0.00,,---,0.01,19.00,VWS V14.00,2013-03-11 22:50:00,
2013-03-11 18:55:00,46.7,40.5,29.73,NW,312,11.0,16.0,79,0.00,,---,0.01,25.00,VWS V14.00,2013-03-11 22:55:00,
2013-03-11 19:00:00,46.0,40.2,29.73,West,269,6.0,13.0,80,0.00,,---,0.01,19.00,VWS V14.00,2013-03-11 23:00:00,
2013-03-11 19:05:00,45.6,40.1,29.74,WNW,302,9.0,13.0,81,0.00,,---,0.01,12.00,VWS V14.00,2013-03-11 23:05:00,
2013-03-11 19:10:00,45.4,39.9,29.74,NW,308,8.0,14.0,81,0.00,,---,0.01,11.00,VWS V14.00,2013-03-11 23:10:00,
2013-03-11 19:15:00,45.2,39.7,29.75,West,260,12.0,14.0,81,0.00,,---,0.01,7.00,VWS V14.00,2013-03-11 23:15:00,
2013-03-11 19:20:00,45.0,39.5,29.75,WNW,302,11.0,18.0,81,0.00,,---,0.01,0.00,VWS V14.00,2013-03-11 23:20:00,
2013-03-11 19:25:00,44.9,39.4,29.75,West,262,10.0,16.0,81,0.00,,---,0.01,0.00,VWS V14.00,2013-03-11 23:25:00,
2013-03-11 19:31:00,44.8,39.7,29.76,NW,309,10.0,13.0,82,0.00,,---,0.01,0.00,VWS V14.00,2013-03-11 23:31:00,
2013-03-11 19:36:00,44.5,39.4,29.76,NW,321,8.0,8.0,82,0.00,,---,0.01,0.00,VWS V14.00,2013-03-11 23:36:00,
2013-03-11 19:41:00,43.9,39.1,29.77,NW,304,16.0,16.0,83,0.00,,---,0.01,0.00,VWS V14.00,2013-03-11 23:41:00,
2013-03-11 19:46:00,43.3,38.8,29.77,NW,316,12.0,13.0,84,0.00,,---,0.01,0.00,VWS V14.00,2013-03-11 23:46:00,
2013-03-11 19:51:00,43.0,39.1,29.77,WNW,293,5.0,7.0,86,0.00,,---,0.01,0.00,VWS V14.00,2013-03-11 23:51:00,
2013-03-11 19:56:00,42.8,38.9,29.78,NW,311,9.0,10.0,86,0.00,,---,0.01,0.00,VWS V14.00,2013-03-11 23:56:00,
2013-03-11 20:01:00,42.7,38.8,29.78,NW,304,7.0,7.0,86,0.00,,---,0.01,0.00,VWS V14.00,2013-03-12 00:01:00,
2013-03-11 20:06:00,42.6,38.7,29.78,WNW,282,10.0,18.0,86,0.00,,---,0.01,0.00,VWS V14.00,2013-03-12 00:06:00,
2013-03-11 20:11:00,42.5,38.3,29.78,NW,308,11.0,16.0,85,0.00,,---,0.01,0.00,VWS V14.00,2013-03-12 00:11:00,
2013-03-11 20:16:00,42.5,38.0,29.79,WSW,246,16.0,16.0,84,0.00,,---,0.01,0.00,VWS V14.00,2013-03-12 00:16:00,
2013-03-11 20:21:00,42.4,37.6,29.79,WNW,285,6.0,12.0,83,0.00,,---,0.01,0.00,VWS V14.00,2013-03-12 00:21:00,
2013-03-11 20:26:00,42.3,37.5,29.79,WNW,302,6.0,9.0,83,0.00,,---,0.01,0.00,VWS V14.00,2013-03-12 00:26:00,
2013-03-11 20:31:00,42.2,37.4,29.79,WNW,283,9.0,13.0,83,0.00,,---,0.01,0.00,VWS V14.00,2013-03-12 00:31:00,
2013-03-11 20:36:00,42.2,37.4,29.79,West,281,11.0,12.0,83,0.00,,---,0.01,0.00,VWS V14.00,2013-03-12 00:36:00,
2013-03-11 20:41:00,42.2,37.7,29.80,WNW,300,6.0,14.0,84,0.00,,---,0.01,0.00,VWS V14.00,2013-03-12 00:41:00,
2013-03-11 20:50:00,41.8,37.3,29.81,WNW,286,9.0,29.0,84,0.00,,---,0.01,0.00,VWS V14.00,2013-03-12 00:50:00,
2013-03-11 20:55:00,41.3,37.1,29.81,NW,322,10.0,15.0,85,0.00,,---,0.01,0.00,VWS V14.00,2013-03-12 00:55:00,
2013-03-11 21:01:00,40.8,36.7,29.81,WNW,296,6.0,9.0,85,0.00,,---,0.01,0.00,VWS V14.00,2013-03-12 01:01:00,
2013-03-11 21:06:00,40.7,36.2,29.81,West,280,6.0,13.0,84,0.00,,---,0.01,0.00,VWS V14.00,2013-03-12 01:06:00,
2013-03-11 21:11:00,40.6,36.2,29.82,West,269,7.0,9.0,84,0.00,,---,0.01,0.00,VWS V14.00,2013-03-12 01:11:00,
2013-03-11 21:16:00,40.6,36.2,29.82,NW,306,8.0,8.0,84,0.00,,---,0.01,0.00,VWS V14.00,2013-03-12 01:16:00,
2013-03-11 21:21:00,40.5,36.3,29.82,WSW,255,8.0,18.0,85,0.00,,---,0.01,0.00,VWS V14.00,2013-03-12 01:21:00,
2013-03-11 21:26:00,40.5,36.3,29.82,West,277,16.0,19.0,85,0.00,,---,0.01,0.00,VWS V14.00,2013-03-12 01:26:00,
2013-03-11 21:31:00,40.5,36.3,29.83,WSW,242,7.0,12.0,85,0.00,,---,0.01,0.00,VWS V14.00,2013-03-12 01:31:00,
2013-03-11 21:36:00,40.4,36.3,29.83,WNW,297,8.0,12.0,85,0.00,,---,0.01,0.00,VWS V14.00,2013-03-12 01:36:00,
2013-03-11 21:41:00,40.4,36.3,29.83,West,273,11.0,18.0,85,0.00,,---,0.01,0.00,VWS V14.00,2013-03-12 01:41:00,
2013-03-11 21:46:00,40.3,36.5,29.83,West,265,8.0,14.0,86,0.00,,---,0.01,0.00,VWS V14.00,2013-03-12 01:46:00,
2013-03-11 21:55:00,40.2,36.3,29.84,WNW,293,10.0,19.0,86,0.00,,---,0.01,0.00,VWS V14.00,2013-03-12 01:55:00,
2013-03-11 22:00:00,40.2,36.3,29.84,WSW,243,7.0,15.0,86,0.00,,---,0.01,0.00,VWS V14.00,2013-03-12 02:00:00,
2013-03-11 22:05:00,40.1,36.3,29.84,WSW,247,12.0,16.0,86,0.00,,---,0.01,0.00,VWS V14.00,2013-03-12 02:05:00,
2013-03-11 22:11:00,40.1,36.3,29.84,NW,325,9.0,10.0,86,0.00,,---,0.01,0.00,VWS V14.00,2013-03-12 02:11:00,
2013-03-11 22:17:00,40.0,36.2,29.84,NW,306,8.0,13.0,86,0.00,,---,0.01,0.00,VWS V14.00,2013-03-12 02:17:00,
2013-03-11 22:22:00,39.9,36.1,29.84,WNW,284,7.0,10.0,86,0.00,,---,0.01,0.00,VWS V14.00,2013-03-12 02:22:00,
2013-03-11 22:27:00,39.8,36.0,29.84,NW,322,11.0,11.0,86,0.00,,---,0.01,0.00,VWS V14.00,2013-03-12 02:27:00,
2013-03-11 22:32:00,39.8,36.0,29.85,WNW,302,7.0,11.0,86,0.00,,---,0.01,0.00,VWS V14.00,2013-03-12 02:32:00,
2013-03-11 22:37:00,39.7,35.9,29.85,SW,236,14.0,14.0,86,0.00,,---,0.01,0.00,VWS V14.00,2013-03-12 02:37:00,
2013-03-11 22:42:00,39.6,35.2,29.85,NW,312,9.0,16.0,84,0.00,,---,0.01,0.00,VWS V14.00,2013-03-12 02:42:00,
2013-03-11 22:47:00,39.6,35.2,29.85,WNW,300,8.0,14.0,84,0.00,,---,0.01,0.00,VWS V14.00,2013-03-12 02:47:00,
2013-03-11 22:52:00,39.6,35.2,29.85,WNW,289,8.0,11.0,84,0.00,,---,0.01,0.00,VWS V14.00,2013-03-12 02:52:00,
2013-03-11 22:57:00,39.5,35.4,29.86,NW,306,6.0,9.0,85,0.00,,---,0.01,0.00,VWS V14.00,2013-03-12 02:57:00,
2013-03-11 23:02:00,39.4,35.3,29.86,NW,304,7.0,8.0,85,0.00,,---,0.01,0.00,VWS V14.00,2013-03-12 03:02:00,
2013-03-11 23:07:00,39.3,35.2,29.86,WNW,295,5.0,15.0,85,0.00,,---,0.01,0.00,VWS V14.00,2013-03-12 03:07:00,
2013-03-11 23:12:00,39.2,34.8,29.86,NW,315,10.0,10.0,84,0.00,,---,0.01,0.00,VWS V14.00,2013-03-12 03:12:00,
2013-03-11 23:17:00,39.2,34.8,29.86,NW,311,10.0,14.0,84,0.00,,---,0.01,0.00,VWS V14.00,2013-03-12 03:17:00,
2013-03-11 23:22:00,39.1,34.7,29.86,West,281,5.0,12.0,84,0.00,,---,0.01,0.00,VWS V14.00,2013-03-12 03:22:00,
2013-03-11 23:27:00,39.1,34.7,29.86,WNW,291,2.0,8.0,84,0.00,,---,0.01,0.00,VWS V14.00,2013-03-12 03:27:00,
2013-03-11 23:32:00,39.0,34.6,29.86,West,280,0.0,5.0,84,0.00,,---,0.01,0.00,VWS V14.00,2013-03-12 03:32:00,
2013-03-11 23:37:00,38.9,34.5,29.86,NW,304,11.0,11.0,84,0.00,,---,0.01,0.00,VWS V14.00,2013-03-12 03:37:00,
2013-03-11 23:42:00,38.8,34.4,29.86,West,277,10.0,10.0,84,0.00,,---,0.01,0.00,VWS V14.00,2013-03-12 03:42:00,
2013-03-11 23:47:00,38.7,34.3,29.86,WNW,298,10.0,12.0,84,0.00,,---,0.01,0.00,VWS V14.00,2013-03-12 03:47:00,
2013-03-11 23:52:00,38.5,34.1,29.86,NW,313,8.0,12.0,84,0.00,,---,0.01,0.00,VWS V14.00,2013-03-12 03:52:00,
2013-03-11 23:57:00,38.5,34.1,29.86,NW,322,15.0,15.0,84,0.00,,---,0.00,0.00,VWS V14.00,2013-03-12 03:57:00,